sensor_id;sensor_type;location;lat;lon;timestamp;temperature;humidity
46123;DHT22;31856;-35.404;149.120;2023-04-23T00:02:20;15.30;74.60
46123;DHT22;31856;-35.404;149.120;2023-04-23T00:04:50;15.50;74.40
46123;DHT22;31856;-35.404;149.120;2023-04-23T00:07:21;15.70;74.00
46123;DHT22;31856;-35.404;149.120;2023-04-23T00:09:51;15.80;73.20
46123;DHT22;31856;-35.404;149.120;2023-04-23T00:12:20;16.00;71.90
46123;DHT22;31856;-35.404;149.120;2023-04-23T00:14:51;16.00;71.20
46123;DHT22;31856;-35.404;149.120;2023-04-23T00:17:21;16.10;71.40
46123;DHT22;31856;-35.404;149.120;2023-04-23T00:19:50;16.30;70.90
46123;DHT22;31856;-35.404;149.120;2023-04-23T00:22:20;16.40;70.50
46123;DHT22;31856;-35.404;149.120;2023-04-23T00:24:49;16.40;70.30
46123;DHT22;31856;-35.404;149.120;2023-04-23T00:27:19;16.50;69.90
46123;DHT22;31856;-35.404;149.120;2023-04-23T00:29:48;16.70;69.80
46123;DHT22;31856;-35.404;149.120;2023-04-23T00:32:19;16.80;69.40
46123;DHT22;31856;-35.404;149.120;2023-04-23T00:34:50;16.90;69.70
46123;DHT22;31856;-35.404;149.120;2023-04-23T00:37:19;17.00;69.50
46123;DHT22;31856;-35.404;149.120;2023-04-23T00:39:49;16.90;68.80
46123;DHT22;31856;-35.404;149.120;2023-04-23T00:42:18;16.90;69.20
46123;DHT22;31856;-35.404;149.120;2023-04-23T00:44:48;16.90;69.00
46123;DHT22;31856;-35.404;149.120;2023-04-23T00:47:18;16.90;68.70
46123;DHT22;31856;-35.404;149.120;2023-04-23T00:49:48;17.00;68.50
46123;DHT22;31856;-35.404;149.120;2023-04-23T00:52:19;17.10;68.80
46123;DHT22;31856;-35.404;149.120;2023-04-23T00:54:49;17.20;68.80
46123;DHT22;31856;-35.404;149.120;2023-04-23T00:57:19;17.30;68.30
46123;DHT22;31856;-35.404;149.120;2023-04-23T00:59:49;17.30;68.10
46123;DHT22;31856;-35.404;149.120;2023-04-23T01:02:19;17.20;68.10
46123;DHT22;31856;-35.404;149.120;2023-04-23T01:04:49;17.10;68.60
46123;DHT22;31856;-35.404;149.120;2023-04-23T01:07:19;17.30;68.20
46123;DHT22;31856;-35.404;149.120;2023-04-23T01:09:49;17.50;67.60
46123;DHT22;31856;-35.404;149.120;2023-04-23T01:12:19;17.70;66.60
46123;DHT22;31856;-35.404;149.120;2023-04-23T01:14:48;18.00;66.20
46123;DHT22;31856;-35.404;149.120;2023-04-23T01:17:18;18.20;65.40
46123;DHT22;31856;-35.404;149.120;2023-04-23T01:19:48;18.40;64.60
46123;DHT22;31856;-35.404;149.120;2023-04-23T01:22:17;18.30;63.70
46123;DHT22;31856;-35.404;149.120;2023-04-23T01:24:46;18.30;64.40
46123;DHT22;31856;-35.404;149.120;2023-04-23T01:27:16;18.20;65.10
46123;DHT22;31856;-35.404;149.120;2023-04-23T01:29:47;18.10;65.70
46123;DHT22;31856;-35.404;149.120;2023-04-23T01:32:17;18.00;65.60
46123;DHT22;31856;-35.404;149.120;2023-04-23T01:34:47;17.90;65.50
46123;DHT22;31856;-35.404;149.120;2023-04-23T01:37:17;17.90;65.70
46123;DHT22;31856;-35.404;149.120;2023-04-23T01:39:46;17.80;65.30
46123;DHT22;31856;-35.404;149.120;2023-04-23T01:42:16;17.80;65.90
46123;DHT22;31856;-35.404;149.120;2023-04-23T01:44:45;17.80;65.40
46123;DHT22;31856;-35.404;149.120;2023-04-23T01:47:15;17.80;65.80
46123;DHT22;31856;-35.404;149.120;2023-04-23T01:49:44;17.70;65.50
46123;DHT22;31856;-35.404;149.120;2023-04-23T01:52:14;17.70;65.80
46123;DHT22;31856;-35.404;149.120;2023-04-23T01:54:43;17.70;65.90
46123;DHT22;31856;-35.404;149.120;2023-04-23T01:57:13;17.90;65.90
46123;DHT22;31856;-35.404;149.120;2023-04-23T01:59:42;18.20;65.20
46123;DHT22;31856;-35.404;149.120;2023-04-23T02:02:12;18.30;64.70
46123;DHT22;31856;-35.404;149.120;2023-04-23T02:04:43;18.40;64.00
46123;DHT22;31856;-35.404;149.120;2023-04-23T02:07:13;18.70;64.00
46123;DHT22;31856;-35.404;149.120;2023-04-23T02:09:43;18.80;62.80
46123;DHT22;31856;-35.404;149.120;2023-04-23T02:12:13;18.90;62.60
46123;DHT22;31856;-35.404;149.120;2023-04-23T02:14:43;19.00;61.30
46123;DHT22;31856;-35.404;149.120;2023-04-23T02:17:12;19.10;61.40
46123;DHT22;31856;-35.404;149.120;2023-04-23T02:19:43;19.10;60.90
46123;DHT22;31856;-35.404;149.120;2023-04-23T02:22:12;19.20;60.60
46123;DHT22;31856;-35.404;149.120;2023-04-23T02:24:41;19.30;60.80
46123;DHT22;31856;-35.404;149.120;2023-04-23T02:27:11;19.30;60.60
46123;DHT22;31856;-35.404;149.120;2023-04-23T02:29:41;19.30;60.20
46123;DHT22;31856;-35.404;149.120;2023-04-23T02:32:11;19.40;60.00
46123;DHT22;31856;-35.404;149.120;2023-04-23T02:34:41;19.50;59.60
46123;DHT22;31856;-35.404;149.120;2023-04-23T02:37:10;19.70;59.40
46123;DHT22;31856;-35.404;149.120;2023-04-23T02:39:39;19.80;58.60
46123;DHT22;31856;-35.404;149.120;2023-04-23T02:42:09;19.80;58.60
46123;DHT22;31856;-35.404;149.120;2023-04-23T02:44:39;20.00;58.00
46123;DHT22;31856;-35.404;149.120;2023-04-23T02:47:09;20.00;57.70
46123;DHT22;31856;-35.404;149.120;2023-04-23T02:49:38;20.00;57.30
46123;DHT22;31856;-35.404;149.120;2023-04-23T02:52:08;19.80;57.60
46123;DHT22;31856;-35.404;149.120;2023-04-23T02:54:39;19.60;58.40
46123;DHT22;31856;-35.404;149.120;2023-04-23T02:57:09;19.50;58.50
46123;DHT22;31856;-35.404;149.120;2023-04-23T02:59:40;19.30;59.30
46123;DHT22;31856;-35.404;149.120;2023-04-23T03:02:09;19.30;60.20
46123;DHT22;31856;-35.404;149.120;2023-04-23T03:04:39;19.30;60.00
46123;DHT22;31856;-35.404;149.120;2023-04-23T03:07:09;19.10;60.60
46123;DHT22;31856;-35.404;149.120;2023-04-23T03:09:40;19.10;61.70
46123;DHT22;31856;-35.404;149.120;2023-04-23T03:12:10;19.00;61.40
46123;DHT22;31856;-35.404;149.120;2023-04-23T03:14:39;18.90;61.50
46123;DHT22;31856;-35.404;149.120;2023-04-23T03:17:09;18.90;61.80
46123;DHT22;31856;-35.404;149.120;2023-04-23T03:19:39;18.80;61.90
46123;DHT22;31856;-35.404;149.120;2023-04-23T03:22:08;18.80;61.60
46123;DHT22;31856;-35.404;149.120;2023-04-23T03:24:37;18.80;61.70
46123;DHT22;31856;-35.404;149.120;2023-04-23T03:27:07;18.70;62.00
46123;DHT22;31856;-35.404;149.120;2023-04-23T03:29:37;18.70;61.90
46123;DHT22;31856;-35.404;149.120;2023-04-23T03:32:06;18.60;62.20
46123;DHT22;31856;-35.404;149.120;2023-04-23T03:34:36;18.50;61.70
46123;DHT22;31856;-35.404;149.120;2023-04-23T03:37:05;18.40;61.80
46123;DHT22;31856;-35.404;149.120;2023-04-23T03:39:35;18.40;62.30
46123;DHT22;31856;-35.404;149.120;2023-04-23T03:42:04;18.30;62.70
46123;DHT22;31856;-35.404;149.120;2023-04-23T03:44:34;18.50;62.70
46123;DHT22;31856;-35.404;149.120;2023-04-23T03:47:03;18.70;62.60
46123;DHT22;31856;-35.404;149.120;2023-04-23T03:49:33;18.90;62.30
46123;DHT22;31856;-35.404;149.120;2023-04-23T03:52:02;19.10;60.90
46123;DHT22;31856;-35.404;149.120;2023-04-23T03:54:33;19.30;60.40
46123;DHT22;31856;-35.404;149.120;2023-04-23T03:57:02;19.40;60.20
46123;DHT22;31856;-35.404;149.120;2023-04-23T03:59:31;19.60;59.30
46123;DHT22;31856;-35.404;149.120;2023-04-23T04:02:01;19.80;59.20
46123;DHT22;31856;-35.404;149.120;2023-04-23T04:04:32;19.90;58.40
46123;DHT22;31856;-35.404;149.120;2023-04-23T04:07:02;20.10;57.50
46123;DHT22;31856;-35.404;149.120;2023-04-23T04:09:31;20.10;56.10
46123;DHT22;31856;-35.404;149.120;2023-04-23T04:12:01;20.30;55.30
46123;DHT22;31856;-35.404;149.120;2023-04-23T04:14:31;20.30;55.20
46123;DHT22;31856;-35.404;149.120;2023-04-23T04:17:01;20.40;55.40
46123;DHT22;31856;-35.404;149.120;2023-04-23T04:19:30;20.50;55.10
46123;DHT22;31856;-35.404;149.120;2023-04-23T04:22:00;20.60;55.00
46123;DHT22;31856;-35.404;149.120;2023-04-23T04:24:31;20.70;54.90
46123;DHT22;31856;-35.404;149.120;2023-04-23T04:27:01;20.80;54.80
46123;DHT22;31856;-35.404;149.120;2023-04-23T04:29:30;20.90;54.40
46123;DHT22;31856;-35.404;149.120;2023-04-23T04:31:59;20.90;54.00
46123;DHT22;31856;-35.404;149.120;2023-04-23T04:34:30;20.80;54.70
46123;DHT22;31856;-35.404;149.120;2023-04-23T04:36:59;20.70;54.30
46123;DHT22;31856;-35.404;149.120;2023-04-23T04:39:29;20.60;54.70
46123;DHT22;31856;-35.404;149.120;2023-04-23T04:41:59;20.50;55.20
46123;DHT22;31856;-35.404;149.120;2023-04-23T04:44:30;20.50;54.80
46123;DHT22;31856;-35.404;149.120;2023-04-23T04:46:59;20.50;54.40
46123;DHT22;31856;-35.404;149.120;2023-04-23T04:49:30;20.50;54.20
46123;DHT22;31856;-35.404;149.120;2023-04-23T04:51:59;20.50;55.30
46123;DHT22;31856;-35.404;149.120;2023-04-23T04:54:29;20.40;55.20
46123;DHT22;31856;-35.404;149.120;2023-04-23T04:56:58;20.30;55.70
46123;DHT22;31856;-35.404;149.120;2023-04-23T04:59:29;20.20;56.00
46123;DHT22;31856;-35.404;149.120;2023-04-23T05:01:59;20.10;56.20
46123;DHT22;31856;-35.404;149.120;2023-04-23T05:04:29;20.00;56.30
46123;DHT22;31856;-35.404;149.120;2023-04-23T05:06:58;19.80;56.90
46123;DHT22;31856;-35.404;149.120;2023-04-23T05:09:28;19.80;55.40
46123;DHT22;31856;-35.404;149.120;2023-04-23T05:11:57;19.80;55.90
46123;DHT22;31856;-35.404;149.120;2023-04-23T05:14:27;19.80;55.70
46123;DHT22;31856;-35.404;149.120;2023-04-23T05:16:56;19.70;56.00
46123;DHT22;31856;-35.404;149.120;2023-04-23T05:19:26;19.70;56.40
46123;DHT22;31856;-35.404;149.120;2023-04-23T05:21:55;19.70;56.60
46123;DHT22;31856;-35.404;149.120;2023-04-23T05:24:25;19.70;57.10
46123;DHT22;31856;-35.404;149.120;2023-04-23T05:26:54;19.70;56.50
46123;DHT22;31856;-35.404;149.120;2023-04-23T05:29:24;19.80;56.20
46123;DHT22;31856;-35.404;149.120;2023-04-23T05:31:54;20.00;56.90
46123;DHT22;31856;-35.404;149.120;2023-04-23T05:34:23;20.10;55.70
46123;DHT22;31856;-35.404;149.120;2023-04-23T05:36:53;20.10;55.80
46123;DHT22;31856;-35.404;149.120;2023-04-23T05:39:22;20.30;55.60
46123;DHT22;31856;-35.404;149.120;2023-04-23T05:41:52;20.30;55.60
46123;DHT22;31856;-35.404;149.120;2023-04-23T05:44:21;20.40;55.40
46123;DHT22;31856;-35.404;149.120;2023-04-23T05:46:51;20.50;55.30
46123;DHT22;31856;-35.404;149.120;2023-04-23T05:49:21;20.60;55.10
46123;DHT22;31856;-35.404;149.120;2023-04-23T05:51:51;20.70;55.00
46123;DHT22;31856;-35.404;149.120;2023-04-23T05:54:20;20.70;54.40
46123;DHT22;31856;-35.404;149.120;2023-04-23T05:56:49;20.60;53.80
46123;DHT22;31856;-35.404;149.120;2023-04-23T05:59:20;20.70;54.40
46123;DHT22;31856;-35.404;149.120;2023-04-23T06:01:50;20.70;54.50
46123;DHT22;31856;-35.404;149.120;2023-04-23T06:04:20;20.70;54.00
46123;DHT22;31856;-35.404;149.120;2023-04-23T06:06:50;20.80;54.50
46123;DHT22;31856;-35.404;149.120;2023-04-23T06:09:19;20.70;54.00
46123;DHT22;31856;-35.404;149.120;2023-04-23T06:11:50;20.50;54.00
46123;DHT22;31856;-35.404;149.120;2023-04-23T06:14:20;20.50;54.10
46123;DHT22;31856;-35.404;149.120;2023-04-23T06:16:49;20.40;54.70
46123;DHT22;31856;-35.404;149.120;2023-04-23T06:19:19;20.30;55.20
46123;DHT22;31856;-35.404;149.120;2023-04-23T06:21:48;20.30;55.90
46123;DHT22;31856;-35.404;149.120;2023-04-23T06:24:19;20.20;56.30
46123;DHT22;31856;-35.404;149.120;2023-04-23T06:26:48;20.10;56.30
46123;DHT22;31856;-35.404;149.120;2023-04-23T06:29:18;20.00;56.70
46123;DHT22;31856;-35.404;149.120;2023-04-23T06:31:47;19.90;57.20
46123;DHT22;31856;-35.404;149.120;2023-04-23T06:34:17;19.80;57.20
46123;DHT22;31856;-35.404;149.120;2023-04-23T06:36:46;19.80;56.70
46123;DHT22;31856;-35.404;149.120;2023-04-23T06:39:16;19.80;57.30
46123;DHT22;31856;-35.404;149.120;2023-04-23T06:41:45;19.80;57.70
46123;DHT22;31856;-35.404;149.120;2023-04-23T06:44:15;19.70;57.70
46123;DHT22;31856;-35.404;149.120;2023-04-23T06:46:44;19.50;58.30
46123;DHT22;31856;-35.404;149.120;2023-04-23T06:49:14;19.50;59.00
46123;DHT22;31856;-35.404;149.120;2023-04-23T06:51:43;19.30;59.60
46123;DHT22;31856;-35.404;149.120;2023-04-23T06:54:13;19.30;59.70
46123;DHT22;31856;-35.404;149.120;2023-04-23T06:56:42;19.20;60.40
46123;DHT22;31856;-35.404;149.120;2023-04-23T06:59:12;19.10;60.70
46123;DHT22;31856;-35.404;149.120;2023-04-23T07:01:41;19.00;61.00
46123;DHT22;31856;-35.404;149.120;2023-04-23T07:04:11;19.00;61.20
46123;DHT22;31856;-35.404;149.120;2023-04-23T07:06:40;18.90;61.50
46123;DHT22;31856;-35.404;149.120;2023-04-23T07:09:10;18.80;61.80
46123;DHT22;31856;-35.404;149.120;2023-04-23T07:11:40;18.80;62.00
46123;DHT22;31856;-35.404;149.120;2023-04-23T07:14:09;18.70;62.20
46123;DHT22;31856;-35.404;149.120;2023-04-23T07:16:39;18.60;62.60
46123;DHT22;31856;-35.404;149.120;2023-04-23T07:19:09;18.60;62.90
46123;DHT22;31856;-35.404;149.120;2023-04-23T07:21:38;18.50;63.10
46123;DHT22;31856;-35.404;149.120;2023-04-23T07:24:08;18.40;63.50
46123;DHT22;31856;-35.404;149.120;2023-04-23T07:26:38;18.30;63.80
46123;DHT22;31856;-35.404;149.120;2023-04-23T07:29:08;18.30;64.20
46123;DHT22;31856;-35.404;149.120;2023-04-23T07:31:38;18.20;64.50
46123;DHT22;31856;-35.404;149.120;2023-04-23T07:34:12;18.20;64.90
46123;DHT22;31856;-35.404;149.120;2023-04-23T07:36:41;18.10;65.00
46123;DHT22;31856;-35.404;149.120;2023-04-23T07:39:10;18.00;65.00
46123;DHT22;31856;-35.404;149.120;2023-04-23T07:41:41;18.00;65.30
46123;DHT22;31856;-35.404;149.120;2023-04-23T07:44:10;17.80;65.70
46123;DHT22;31856;-35.404;149.120;2023-04-23T07:46:39;17.80;66.00
46123;DHT22;31856;-35.404;149.120;2023-04-23T07:49:09;17.70;66.10
46123;DHT22;31856;-35.404;149.120;2023-04-23T07:51:38;17.70;66.10
46123;DHT22;31856;-35.404;149.120;2023-04-23T07:54:09;17.60;66.30
46123;DHT22;31856;-35.404;149.120;2023-04-23T07:56:39;17.60;66.70
46123;DHT22;31856;-35.404;149.120;2023-04-23T07:59:09;17.50;66.80
46123;DHT22;31856;-35.404;149.120;2023-04-23T08:01:38;17.40;67.20
46123;DHT22;31856;-35.404;149.120;2023-04-23T08:04:10;17.40;67.60
46123;DHT22;31856;-35.404;149.120;2023-04-23T08:06:40;17.30;67.80
46123;DHT22;31856;-35.404;149.120;2023-04-23T08:09:09;17.30;68.20
46123;DHT22;31856;-35.404;149.120;2023-04-23T08:11:39;17.30;68.30
46123;DHT22;31856;-35.404;149.120;2023-04-23T08:14:09;17.20;68.60
46123;DHT22;31856;-35.404;149.120;2023-04-23T08:16:39;17.20;68.90
46123;DHT22;31856;-35.404;149.120;2023-04-23T08:19:08;17.10;69.00
46123;DHT22;31856;-35.404;149.120;2023-04-23T08:21:38;17.10;69.30
46123;DHT22;31856;-35.404;149.120;2023-04-23T08:24:07;17.10;69.40
46123;DHT22;31856;-35.404;149.120;2023-04-23T08:26:37;17.00;69.60
46123;DHT22;31856;-35.404;149.120;2023-04-23T08:29:06;17.00;69.80
46123;DHT22;31856;-35.404;149.120;2023-04-23T08:31:37;16.90;70.10
46123;DHT22;31856;-35.404;149.120;2023-04-23T08:34:07;16.90;70.40
46123;DHT22;31856;-35.404;149.120;2023-04-23T08:36:36;16.80;70.40
46123;DHT22;31856;-35.404;149.120;2023-04-23T08:39:06;16.80;70.50
46123;DHT22;31856;-35.404;149.120;2023-04-23T08:41:39;16.80;70.50
46123;DHT22;31856;-35.404;149.120;2023-04-23T08:44:11;16.80;70.60
46123;DHT22;31856;-35.404;149.120;2023-04-23T08:46:41;16.80;70.70
46123;DHT22;31856;-35.404;149.120;2023-04-23T08:49:15;16.80;70.90
46123;DHT22;31856;-35.404;149.120;2023-04-23T08:51:48;16.70;71.00
46123;DHT22;31856;-35.404;149.120;2023-04-23T08:54:24;16.70;71.40
46123;DHT22;31856;-35.404;149.120;2023-04-23T08:56:57;16.60;71.20
46123;DHT22;31856;-35.404;149.120;2023-04-23T08:59:29;16.60;71.60
46123;DHT22;31856;-35.404;149.120;2023-04-23T09:02:02;16.60;71.70
46123;DHT22;31856;-35.404;149.120;2023-04-23T09:04:37;16.50;72.00
46123;DHT22;31856;-35.404;149.120;2023-04-23T09:07:07;16.50;72.00
46123;DHT22;31856;-35.404;149.120;2023-04-23T09:09:38;16.40;71.90
46123;DHT22;31856;-35.404;149.120;2023-04-23T09:12:09;16.40;72.10
46123;DHT22;31856;-35.404;149.120;2023-04-23T09:14:38;16.40;71.90
46123;DHT22;31856;-35.404;149.120;2023-04-23T09:17:08;16.30;72.00
46123;DHT22;31856;-35.404;149.120;2023-04-23T09:19:38;16.30;72.40
46123;DHT22;31856;-35.404;149.120;2023-04-23T09:22:08;16.30;72.40
46123;DHT22;31856;-35.404;149.120;2023-04-23T09:24:40;16.20;72.50
46123;DHT22;31856;-35.404;149.120;2023-04-23T09:27:10;16.20;72.40
46123;DHT22;31856;-35.404;149.120;2023-04-23T09:29:40;16.20;72.50
46123;DHT22;31856;-35.404;149.120;2023-04-23T09:32:13;16.10;72.50
46123;DHT22;31856;-35.404;149.120;2023-04-23T09:34:43;16.10;72.50
46123;DHT22;31856;-35.404;149.120;2023-04-23T09:37:13;16.00;72.60
46123;DHT22;31856;-35.404;149.120;2023-04-23T09:39:46;16.00;72.80
46123;DHT22;31856;-35.404;149.120;2023-04-23T09:42:16;16.00;72.80
46123;DHT22;31856;-35.404;149.120;2023-04-23T09:44:46;15.90;72.80
46123;DHT22;31856;-35.404;149.120;2023-04-23T09:47:23;15.90;72.80
46123;DHT22;31856;-35.404;149.120;2023-04-23T09:49:53;15.80;73.20
46123;DHT22;31856;-35.404;149.120;2023-04-23T09:52:22;15.80;73.20
46123;DHT22;31856;-35.404;149.120;2023-04-23T09:54:52;15.80;73.40
46123;DHT22;31856;-35.404;149.120;2023-04-23T09:57:24;15.80;73.40
46123;DHT22;31856;-35.404;149.120;2023-04-23T09:59:57;15.70;73.30
46123;DHT22;31856;-35.404;149.120;2023-04-23T10:02:42;15.70;73.50
46123;DHT22;31856;-35.404;149.120;2023-04-23T10:05:20;15.60;73.50
46123;DHT22;31856;-35.404;149.120;2023-04-23T10:08:00;15.60;73.50
46123;DHT22;31856;-35.404;149.120;2023-04-23T10:10:29;15.50;73.80
46123;DHT22;31856;-35.404;149.120;2023-04-23T10:12:59;15.50;73.90
46123;DHT22;31856;-35.404;149.120;2023-04-23T10:15:28;15.50;73.80
46123;DHT22;31856;-35.404;149.120;2023-04-23T10:17:58;15.50;73.70
46123;DHT22;31856;-35.404;149.120;2023-04-23T10:20:28;15.50;73.90
46123;DHT22;31856;-35.404;149.120;2023-04-23T10:22:58;15.40;73.90
46123;DHT22;31856;-35.404;149.120;2023-04-23T10:25:29;15.40;74.00
46123;DHT22;31856;-35.404;149.120;2023-04-23T10:28:00;15.40;73.90
46123;DHT22;31856;-35.404;149.120;2023-04-23T10:30:34;15.30;74.10
46123;DHT22;31856;-35.404;149.120;2023-04-23T10:33:04;15.30;74.30
46123;DHT22;31856;-35.404;149.120;2023-04-23T10:35:48;15.30;74.50
46123;DHT22;31856;-35.404;149.120;2023-04-23T10:38:19;15.30;74.60
46123;DHT22;31856;-35.404;149.120;2023-04-23T10:40:49;15.20;74.50
46123;DHT22;31856;-35.404;149.120;2023-04-23T10:43:21;15.20;74.50
46123;DHT22;31856;-35.404;149.120;2023-04-23T10:45:51;15.20;74.50
46123;DHT22;31856;-35.404;149.120;2023-04-23T10:48:21;15.20;74.60
46123;DHT22;31856;-35.404;149.120;2023-04-23T10:50:56;15.20;74.50
46123;DHT22;31856;-35.404;149.120;2023-04-23T10:53:46;15.20;74.80
46123;DHT22;31856;-35.404;149.120;2023-04-23T10:56:15;15.10;74.80
46123;DHT22;31856;-35.404;149.120;2023-04-23T10:58:48;15.10;74.60
46123;DHT22;31856;-35.404;149.120;2023-04-23T11:01:22;15.00;74.80
46123;DHT22;31856;-35.404;149.120;2023-04-23T11:03:53;15.10;74.70
46123;DHT22;31856;-35.404;149.120;2023-04-23T11:14:54;15.00;74.50
46123;DHT22;31856;-35.404;149.120;2023-04-23T11:22:47;15.00;75.00
46123;DHT22;31856;-35.404;149.120;2023-04-23T11:27:50;15.00;75.10
46123;DHT22;31856;-35.404;149.120;2023-04-23T11:30:20;15.00;75.20
46123;DHT22;31856;-35.404;149.120;2023-04-23T11:32:51;15.00;75.10
46123;DHT22;31856;-35.404;149.120;2023-04-23T11:35:22;14.90;75.20
46123;DHT22;31856;-35.404;149.120;2023-04-23T11:38:07;15.00;75.10
46123;DHT22;31856;-35.404;149.120;2023-04-23T11:40:39;15.00;75.10
46123;DHT22;31856;-35.404;149.120;2023-04-23T11:43:10;15.00;74.90
46123;DHT22;31856;-35.404;149.120;2023-04-23T11:45:39;14.90;75.00
46123;DHT22;31856;-35.404;149.120;2023-04-23T11:48:09;15.00;75.00
46123;DHT22;31856;-35.404;149.120;2023-04-23T11:50:39;15.00;75.10
46123;DHT22;31856;-35.404;149.120;2023-04-23T11:53:10;14.90;75.10
46123;DHT22;31856;-35.404;149.120;2023-04-23T11:55:40;15.00;75.00
46123;DHT22;31856;-35.404;149.120;2023-04-23T11:58:12;14.90;75.10
46123;DHT22;31856;-35.404;149.120;2023-04-23T12:00:46;14.90;75.10
46123;DHT22;31856;-35.404;149.120;2023-04-23T12:03:18;14.90;75.20
46123;DHT22;31856;-35.404;149.120;2023-04-23T12:05:49;14.90;75.10
46123;DHT22;31856;-35.404;149.120;2023-04-23T12:08:19;14.90;75.30
46123;DHT22;31856;-35.404;149.120;2023-04-23T12:10:53;14.80;75.40
46123;DHT22;31856;-35.404;149.120;2023-04-23T12:13:23;14.80;75.50
46123;DHT22;31856;-35.404;149.120;2023-04-23T12:15:54;14.80;75.40
46123;DHT22;31856;-35.404;149.120;2023-04-23T12:21:31;14.80;75.50
46123;DHT22;31856;-35.404;149.120;2023-04-23T12:23:53;14.80;75.30
46123;DHT22;31856;-35.404;149.120;2023-04-23T12:26:24;14.80;75.20
46123;DHT22;31856;-35.404;149.120;2023-04-23T12:28:55;14.80;75.30
46123;DHT22;31856;-35.404;149.120;2023-04-23T12:31:27;14.80;75.30
46123;DHT22;31856;-35.404;149.120;2023-04-23T12:34:01;14.80;75.20
46123;DHT22;31856;-35.404;149.120;2023-04-23T12:36:32;14.80;75.30
46123;DHT22;31856;-35.404;149.120;2023-04-23T12:41:50;14.80;75.30
46123;DHT22;31856;-35.404;149.120;2023-04-23T12:44:21;14.70;75.20
46123;DHT22;31856;-35.404;149.120;2023-04-23T12:46:57;14.70;75.20
46123;DHT22;31856;-35.404;149.120;2023-04-23T12:49:27;14.70;75.30
46123;DHT22;31856;-35.404;149.120;2023-04-23T12:51:57;14.70;75.10
46123;DHT22;31856;-35.404;149.120;2023-04-23T12:54:31;14.70;75.10
46123;DHT22;31856;-35.404;149.120;2023-04-23T12:57:00;14.70;75.20
46123;DHT22;31856;-35.404;149.120;2023-04-23T12:59:31;14.70;75.20
46123;DHT22;31856;-35.404;149.120;2023-04-23T13:02:00;14.70;75.20
46123;DHT22;31856;-35.404;149.120;2023-04-23T13:04:31;14.70;75.20
46123;DHT22;31856;-35.404;149.120;2023-04-23T13:07:01;14.60;75.20
46123;DHT22;31856;-35.404;149.120;2023-04-23T13:09:31;14.70;75.20
46123;DHT22;31856;-35.404;149.120;2023-04-23T13:12:03;14.60;75.20
46123;DHT22;31856;-35.404;149.120;2023-04-23T13:14:32;14.60;75.40
46123;DHT22;31856;-35.404;149.120;2023-04-23T13:17:02;14.60;75.30
46123;DHT22;31856;-35.404;149.120;2023-04-23T13:19:33;14.60;75.20
46123;DHT22;31856;-35.404;149.120;2023-04-23T13:22:04;14.60;75.00
46123;DHT22;31856;-35.404;149.120;2023-04-23T13:24:34;14.60;75.10
46123;DHT22;31856;-35.404;149.120;2023-04-23T13:27:03;14.60;75.10
46123;DHT22;31856;-35.404;149.120;2023-04-23T13:29:33;14.60;75.10
46123;DHT22;31856;-35.404;149.120;2023-04-23T13:32:03;14.50;75.10
46123;DHT22;31856;-35.404;149.120;2023-04-23T13:34:33;14.60;75.10
46123;DHT22;31856;-35.404;149.120;2023-04-23T13:37:03;14.50;75.30
46123;DHT22;31856;-35.404;149.120;2023-04-23T13:39:37;14.50;75.20
46123;DHT22;31856;-35.404;149.120;2023-04-23T13:42:07;14.50;75.30
46123;DHT22;31856;-35.404;149.120;2023-04-23T13:44:37;14.50;75.50
46123;DHT22;31856;-35.404;149.120;2023-04-23T13:47:07;14.50;75.40
46123;DHT22;31856;-35.404;149.120;2023-04-23T13:49:36;14.50;75.40
46123;DHT22;31856;-35.404;149.120;2023-04-23T13:52:06;14.50;75.60
46123;DHT22;31856;-35.404;149.120;2023-04-23T13:54:38;14.40;75.90
46123;DHT22;31856;-35.404;149.120;2023-04-23T13:57:07;14.30;76.20
46123;DHT22;31856;-35.404;149.120;2023-04-23T13:59:37;14.30;76.00
46123;DHT22;31856;-35.404;149.120;2023-04-23T14:02:07;14.30;76.20
46123;DHT22;31856;-35.404;149.120;2023-04-23T14:04:37;14.30;76.30
46123;DHT22;31856;-35.404;149.120;2023-04-23T14:07:07;14.30;76.20
46123;DHT22;31856;-35.404;149.120;2023-04-23T14:09:37;14.30;76.40
46123;DHT22;31856;-35.404;149.120;2023-04-23T14:12:07;14.20;76.50
46123;DHT22;31856;-35.404;149.120;2023-04-23T14:14:37;14.20;76.00
46123;DHT22;31856;-35.404;149.120;2023-04-23T14:17:06;14.20;75.50
46123;DHT22;31856;-35.404;149.120;2023-04-23T14:19:36;14.20;75.30
46123;DHT22;31856;-35.404;149.120;2023-04-23T14:22:06;14.20;74.90
46123;DHT22;31856;-35.404;149.120;2023-04-23T14:24:40;14.20;75.10
46123;DHT22;31856;-35.404;149.120;2023-04-23T14:27:12;14.20;75.00
46123;DHT22;31856;-35.404;149.120;2023-04-23T14:30:01;14.20;75.00
46123;DHT22;31856;-35.404;149.120;2023-04-23T14:32:32;14.20;74.80
46123;DHT22;31856;-35.404;149.120;2023-04-23T14:35:02;14.20;74.90
46123;DHT22;31856;-35.404;149.120;2023-04-23T14:37:32;14.30;74.80
46123;DHT22;31856;-35.404;149.120;2023-04-23T14:40:01;14.20;74.90
46123;DHT22;31856;-35.404;149.120;2023-04-23T14:42:31;14.20;75.20
46123;DHT22;31856;-35.404;149.120;2023-04-23T14:45:00;14.20;75.50
46123;DHT22;31856;-35.404;149.120;2023-04-23T14:47:30;14.20;75.60
46123;DHT22;31856;-35.404;149.120;2023-04-23T14:49:59;14.20;75.80
46123;DHT22;31856;-35.404;149.120;2023-04-23T14:52:29;14.20;75.10
46123;DHT22;31856;-35.404;149.120;2023-04-23T14:54:59;14.10;74.40
46123;DHT22;31856;-35.404;149.120;2023-04-23T14:57:29;14.20;74.40
46123;DHT22;31856;-35.404;149.120;2023-04-23T14:59:58;14.20;74.50
46123;DHT22;31856;-35.404;149.120;2023-04-23T20:35:52;10.50;77.80
46123;DHT22;31856;-35.404;149.120;2023-04-23T20:38:21;10.40;77.90
46123;DHT22;31856;-35.404;149.120;2023-04-23T20:40:51;10.40;77.90
46123;DHT22;31856;-35.404;149.120;2023-04-23T20:43:21;10.30;78.10
46123;DHT22;31856;-35.404;149.120;2023-04-23T20:45:50;10.30;78.00
46123;DHT22;31856;-35.404;149.120;2023-04-23T20:48:20;10.30;78.20
46123;DHT22;31856;-35.404;149.120;2023-04-23T20:50:51;10.30;78.20
46123;DHT22;31856;-35.404;149.120;2023-04-23T20:53:21;10.30;78.10
46123;DHT22;31856;-35.404;149.120;2023-04-23T20:55:51;10.30;78.30
46123;DHT22;31856;-35.404;149.120;2023-04-23T20:58:21;10.30;78.30
46123;DHT22;31856;-35.404;149.120;2023-04-23T21:00:50;10.30;78.30
46123;DHT22;31856;-35.404;149.120;2023-04-23T21:03:20;10.30;78.20